Time,TemperatureF,DewpointF,PressureIn,WindDirection,WindDirectionDegrees,WindSpeedMPH,WindSpeedGustMPH,Humidity,HourlyPrecipIn,Conditions,Clouds,dailyrainin,SoftwareType,DateUTC
2013-04-01 00:04:00,54.2,51.3,30.04,South,191,0.0,1.0,90,0.00,,,0.00,Wunderground v.1.15,2013-04-01 07:04:00,
2013-04-01 00:09:00,54.2,51.3,30.04,SSE,158,1.0,2.0,90,0.00,,,0.00,Wunderground v.1.15,2013-04-01 07:09:00,
2013-04-01 00:15:00,54.2,51.3,30.04,SSE,161,2.0,4.0,90,0.00,,,0.00,Wunderground v.1.15,2013-04-01 07:15:00,
2013-04-01 00:24:00,54.0,51.4,30.04,South,178,1.0,2.0,91,0.00,,,0.00,Wunderground v.1.15,2013-04-01 07:24:00,
2013-04-01 00:34:00,53.8,51.2,30.04,ESE,105,1.0,1.0,91,0.00,,,0.00,Wunderground v.1.15,2013-04-01 07:34:00,
2013-04-01 00:39:00,53.8,51.2,30.05,ESE,102,1.0,1.0,91,0.00,,,0.00,Wunderground v.1.15,2013-04-01 07:39:00,
2013-04-01 00:44:00,53.8,51.2,30.05,ESE,102,0.0,1.0,91,0.00,,,0.00,Wunderground v.1.15,2013-04-01 07:44:00,
2013-04-01 00:50:00,53.8,51.2,30.05,ESE,102,0.0,0.0,91,0.00,,,0.00,Wunderground v.1.15,2013-04-01 07:50:00,
2013-04-01 00:59:00,53.8,51.2,30.05,ESE,102,0.0,0.0,91,0.00,,,0.00,Wunderground v.1.15,2013-04-01 07:59:00,
2013-04-01 01:25:00,53.6,51.0,30.05,SSE,159,2.0,2.0,91,0.00,,,0.01,Wunderground v.1.15,2013-04-01 08:25:00,
2013-04-01 01:34:00,53.5,50.9,30.04,SSE,158,0.0,0.0,91,0.00,,,0.01,Wunderground v.1.15,2013-04-01 08:34:00,
2013-04-01 01:44:00,53.4,51.1,30.04,SE,130,0.0,1.0,92,0.00,,,0.01,Wunderground v.1.15,2013-04-01 08:44:00,
2013-04-01 01:54:00,53.3,51.0,30.05,SE,130,1.0,1.0,92,0.00,,,0.01,Wunderground v.1.15,2013-04-01 08:54:00,
2013-04-01 02:04:00,53.1,51.1,30.05,SE,138,1.0,1.0,93,0.00,,,0.01,Wunderground v.1.15,2013-04-01 09:04:00,
2013-04-01 02:15:00,53.0,51.0,30.05,SE,138,0.0,1.0,93,0.00,,,0.01,Wunderground v.1.15,2013-04-01 09:15:00,
2013-04-01 02:29:00,52.7,50.7,30.04,SE,138,1.0,1.0,93,0.00,,,0.01,Wunderground v.1.15,2013-04-01 09:29:00,
2013-04-01 02:44:00,52.3,50.0,30.05,SE,142,0.0,0.0,92,0.00,,,0.01,Wunderground v.1.15,2013-04-01 09:44:00,
2013-04-01 02:54:00,52.0,50.0,30.05,SE,142,0.0,0.0,93,0.00,,,0.01,Wunderground v.1.15,2013-04-01 09:54:00,
2013-04-01 02:59:00,51.8,49.8,30.05,SE,142,0.0,0.0,93,0.00,,,0.01,Wunderground v.1.15,2013-04-01 09:59:00,
2013-04-01 03:05:00,51.8,49.8,30.05,SE,142,0.0,0.0,93,0.00,,,0.01,Wunderground v.1.15,2013-04-01 10:05:00,
2013-04-01 03:10:00,51.7,49.7,30.05,SE,142,0.0,0.0,93,0.00,,,0.01,Wunderground v.1.15,2013-04-01 10:10:00,
2013-04-01 03:20:00,51.9,50.2,30.05,SE,142,0.0,0.0,94,0.00,,,0.01,Wunderground v.1.15,2013-04-01 10:20:00,
2013-04-01 03:30:00,52.3,50.6,30.05,SE,142,0.0,0.0,94,0.00,,,0.01,Wunderground v.1.15,2013-04-01 10:30:00,
2013-04-01 03:35:00,52.3,50.6,30.05,SE,142,0.0,0.0,94,0.00,,,0.01,Wunderground v.1.15,2013-04-01 10:35:00,
2013-04-01 03:44:00,52.4,50.7,30.05,SE,142,0.0,0.0,94,0.00,,,0.01,Wunderground v.1.15,2013-04-01 10:44:00,
2013-04-01 03:54:00,52.7,51.0,30.05,SE,142,0.0,0.0,94,0.00,,,0.01,Wunderground v.1.15,2013-04-01 10:54:00,
2013-04-01 04:00:00,52.8,51.1,30.05,SE,142,0.0,0.0,94,0.00,,,0.01,Wunderground v.1.15,2013-04-01 11:00:00,
2013-04-01 04:10:00,52.7,51.0,30.05,SE,142,0.0,0.0,94,0.00,,,0.01,Wunderground v.1.15,2013-04-01 11:10:00,
2013-04-01 04:20:00,52.7,51.0,30.05,SE,142,0.0,0.0,94,0.00,,,0.01,Wunderground v.1.15,2013-04-01 11:20:00,
2013-04-01 04:34:00,52.6,50.9,30.05,SE,142,0.0,0.0,94,0.00,,,0.01,Wunderground v.1.15,2013-04-01 11:34:00,
2013-04-01 04:40:00,52.7,51.0,30.05,SE,142,0.0,0.0,94,0.00,,,0.01,Wunderground v.1.15,2013-04-01 11:40:00,
2013-04-01 04:55:00,52.7,51.0,30.06,SE,142,0.0,0.0,94,0.00,,,0.02,Wunderground v.1.15,2013-04-01 11:55:00,
2013-04-01 05:10:00,52.9,51.2,30.06,SE,142,0.0,0.0,94,0.04,,,0.03,Wunderground v.1.15,2013-04-01 12:10:00,
2013-04-01 05:44:00,53.0,51.6,30.06,SE,142,0.0,0.0,95,0.00,,,0.04,Wunderground v.1.15,2013-04-01 12:44:00,
2013-04-01 05:50:00,53.0,51.6,30.07,SE,142,0.0,0.0,95,0.00,,,0.04,Wunderground v.1.15,2013-04-01 12:50:00,
2013-04-01 06:00:00,53.0,51.6,30.07,SE,142,0.0,0.0,95,0.00,,,0.04,Wunderground v.1.15,2013-04-01 13:00:00,
2013-04-01 06:09:00,53.0,51.6,30.07,SE,142,0.0,0.0,95,0.00,,,0.04,Wunderground v.1.15,2013-04-01 13:09:00,
2013-04-01 06:19:00,52.9,51.5,30.07,SE,142,0.0,0.0,95,0.00,,,0.04,Wunderground v.1.15,2013-04-01 13:19:00,
2013-04-01 06:24:00,52.9,51.5,30.07,SE,142,0.0,0.0,95,0.00,,,0.04,Wunderground v.1.15,2013-04-01 13:24:00,
2013-04-01 06:30:00,52.9,51.5,30.07,SE,142,0.0,0.0,95,0.00,,,0.04,Wunderground v.1.15,2013-04-01 13:30:00,
2013-04-01 06:45:00,52.9,51.5,30.08,SE,142,0.0,0.0,95,0.00,,,0.04,Wunderground v.1.15,2013-04-01 13:45:00,
2013-04-01 06:50:00,52.9,51.5,30.08,SE,142,0.0,0.0,95,0.00,,,0.04,Wunderground v.1.15,2013-04-01 13:50:00,
2013-04-01 07:04:00,52.9,51.5,30.08,SE,142,0.0,0.0,95,0.00,,,0.04,Wunderground v.1.15,2013-04-01 14:04:00,
2013-04-01 07:10:00,53.0,51.6,30.09,SE,142,0.0,0.0,95,0.00,,,0.04,Wunderground v.1.15,2013-04-01 14:10:00,
2013-04-01 07:20:00,53.0,51.6,30.09,SE,142,0.0,0.0,95,0.00,,,0.04,Wunderground v.1.15,2013-04-01 14:20:00,
2013-04-01 07:34:00,53.1,51.7,30.09,SE,142,0.0,0.0,95,0.00,,,0.04,Wunderground v.1.15,2013-04-01 14:34:00,
2013-04-01 07:40:00,53.1,51.7,30.09,SE,142,0.0,0.0,95,0.00,,,0.04,Wunderground v.1.15,2013-04-01 14:40:00,
2013-04-01 07:49:00,53.1,51.7,30.10,SE,142,0.0,0.0,95,0.00,,,0.04,Wunderground v.1.15,2013-04-01 14:49:00,
2013-04-01 08:00:00,53.3,52.2,30.10,SE,142,0.0,0.0,96,0.00,,,0.04,Wunderground v.1.15,2013-04-01 15:00:00,
2013-04-01 08:10:00,53.5,52.4,30.10,SE,142,0.0,0.0,96,0.00,,,0.04,Wunderground v.1.15,2013-04-01 15:10:00,
2013-04-01 08:20:00,53.5,52.4,30.10,SE,142,0.0,0.0,96,0.00,,,0.04,Wunderground v.1.15,2013-04-01 15:20:00,
2013-04-01 08:30:00,53.6,52.2,30.11,SE,142,0.0,0.0,95,0.00,,,0.04,Wunderground v.1.15,2013-04-01 15:30:00,
2013-04-01 08:44:00,54.1,53.0,30.11,SE,142,0.0,0.0,96,0.00,,,0.04,Wunderground v.1.15,2013-04-01 15:44:00,
2013-04-01 08:50:00,54.3,53.2,30.11,SE,142,0.0,0.0,96,0.00,,,0.04,Wunderground v.1.15,2013-04-01 15:50:00,
2013-04-01 09:00:00,54.4,53.0,30.11,SE,142,0.0,0.0,95,0.00,,,0.04,Wunderground v.1.15,2013-04-01 16:00:00,
2013-04-01 09:24:00,55.6,53.9,30.11,SE,142,0.0,0.0,94,0.00,,,0.04,Wunderground v.1.15,2013-04-01 16:24:00,
2013-04-01 09:34:00,56.3,54.6,30.12,SE,142,0.0,1.0,94,0.00,,,0.04,Wunderground v.1.15,2013-04-01 16:34:00,
2013-04-01 09:45:00,56.4,53.2,30.12,SE,142,0.0,0.0,89,0.00,,,0.04,Wunderground v.1.15,2013-04-01 16:45:00,
2013-04-01 09:54:00,57.1,53.9,30.12,SE,142,0.0,4.0,89,0.00,,,0.04,Wunderground v.1.15,2013-04-01 16:54:00,
2013-04-01 10:05:00,57.5,53.3,30.12,SSE,157,1.0,1.0,86,0.00,,,0.04,Wunderground v.1.15,2013-04-01 17:05:00,
2013-04-01 10:14:00,58.7,54.2,30.12,SSE,158,0.0,0.0,85,0.00,,,0.04,Wunderground v.1.15,2013-04-01 17:14:00,
2013-04-01 10:25:00,60.2,54.3,30.12,NW,310,1.0,1.0,81,0.00,,,0.04,Wunderground v.1.15,2013-04-01 17:25:00,
2013-04-01 10:30:00,60.2,53.0,30.12,SW,217,3.0,3.0,77,0.00,,,0.04,Wunderground v.1.15,2013-04-01 17:30:00,
2013-04-01 10:54:00,61.7,54.1,30.12,West,278,2.0,2.0,76,0.00,,,0.04,Wunderground v.1.15,2013-04-01 17:54:00,
2013-04-01 11:00:00,62.4,54.0,30.12,SW,233,2.0,3.0,74,0.00,,,0.04,Wunderground v.1.15,2013-04-01 18:00:00,
2013-04-01 11:10:00,61.2,52.8,30.13,SSW,208,2.0,3.0,74,0.00,,,0.04,Wunderground v.1.15,2013-04-01 18:10:00,
2013-04-01 11:20:00,62.0,53.2,30.13,SW,214,2.0,2.0,73,0.00,,,0.04,Wunderground v.1.15,2013-04-01 18:20:00,
2013-04-01 11:25:00,62.4,52.9,30.13,West,266,2.0,2.0,71,0.00,,,0.04,Wunderground v.1.15,2013-04-01 18:25:00,
2013-04-01 11:34:00,62.1,53.0,30.13,SSW,210,2.0,4.0,72,0.00,,,0.04,Wunderground v.1.15,2013-04-01 18:34:00,
2013-04-01 11:39:00,62.2,52.7,30.13,SW,215,2.0,2.0,71,0.00,,,0.04,Wunderground v.1.15,2013-04-01 18:39:00,
2013-04-01 11:44:00,63.1,52.8,30.13,SSW,208,2.0,2.0,69,0.00,,,0.04,Wunderground v.1.15,2013-04-01 18:44:00,
2013-04-01 11:50:00,62.5,51.8,30.12,SSW,199,3.0,5.0,68,0.00,,,0.04,Wunderground v.1.15,2013-04-01 18:50:00,
2013-04-01 12:00:00,63.3,53.0,30.13,SSW,206,4.0,6.0,69,0.00,,,0.04,Wunderground v.1.15,2013-04-01 19:00:00,
2013-04-01 12:09:00,63.9,52.3,30.13,South,191,3.0,3.0,66,0.00,,,0.04,Wunderground v.1.15,2013-04-01 19:09:00,
2013-04-01 12:14:00,64.1,51.7,30.13,SSW,211,3.0,6.0,64,0.00,,,0.04,Wunderground v.1.15,2013-04-01 19:14:00,
2013-04-01 12:20:00,63.5,51.9,30.12,West,271,5.0,5.0,66,0.00,,,0.04,Wunderground v.1.15,2013-04-01 19:20:00,
2013-04-01 12:35:00,63.3,51.3,30.12,SW,220,6.0,12.0,65,0.00,,,0.04,Wunderground v.1.15,2013-04-01 19:35:00,
2013-04-01 12:44:00,63.4,51.4,30.12,SW,215,6.0,11.0,65,0.00,,,0.04,Wunderground v.1.15,2013-04-01 19:44:00,
2013-04-01 12:54:00,64.0,52.0,30.12,SW,223,5.0,6.0,65,0.00,,,0.04,Wunderground v.1.15,2013-04-01 19:54:00,
2013-04-01 13:04:00,63.4,51.4,30.12,SW,217,5.0,8.0,65,0.00,,,0.04,Wunderground v.1.15,2013-04-01 20:04:00,
2013-04-01 13:10:00,63.7,52.9,30.12,SSE,155,6.0,6.0,68,0.00,,,0.04,Wunderground v.1.15,2013-04-01 20:10:00,
2013-04-01 13:20:00,65.6,51.8,30.12,SW,218,3.0,5.0,61,0.00,,,0.04,Wunderground v.1.15,2013-04-01 20:20:00,
2013-04-01 13:30:00,63.8,50.5,30.12,SW,218,6.0,6.0,62,0.00,,,0.04,Wunderground v.1.15,2013-04-01 20:30:00,
2013-04-01 13:35:00,63.9,50.2,30.12,SSW,208,6.0,6.0,61,0.00,,,0.04,Wunderground v.1.15,2013-04-01 20:35:00,
2013-04-01 13:44:00,65.3,51.5,30.12,SW,217,3.0,5.0,61,0.00,,,0.04,Wunderground v.1.15,2013-04-01 20:44:00,
2013-04-01 13:50:00,64.3,51.4,30.12,SW,229,3.0,4.0,63,0.00,,,0.04,Wunderground v.1.15,2013-04-01 20:50:00,
2013-04-01 14:10:00,66.2,52.3,30.11,SSW,213,1.0,1.0,61,0.00,,,0.04,Wunderground v.1.15,2013-04-01 21:10:00,
2013-04-01 14:20:00,66.3,51.1,30.11,NW,307,3.0,3.0,58,0.00,,,0.04,Wunderground v.1.15,2013-04-01 21:20:00,
2013-04-01 14:25:00,67.1,50.9,30.11,SW,215,2.0,8.0,56,0.00,,,0.04,Wunderground v.1.15,2013-04-01 21:25:00,
2013-04-01 14:34:00,66.8,52.5,30.10,WNW,290,4.0,4.0,60,0.00,,,0.04,Wunderground v.1.15,2013-04-01 21:34:00,
2013-04-01 14:44:00,67.1,49.4,30.10,SSW,205,4.0,4.0,53,0.00,,,0.04,Wunderground v.1.15,2013-04-01 21:44:00,
2013-04-01 14:55:00,68.3,50.5,30.10,SSW,202,2.0,3.0,53,0.00,,,0.04,Wunderground v.1.15,2013-04-01 21:55:00,
2013-04-01 15:04:00,65.4,48.3,30.10,SW,216,6.0,8.0,54,0.00,,,0.04,Wunderground v.1.15,2013-04-01 22:04:00,
2013-04-01 15:09:00,65.5,50.3,30.10,SSW,197,4.0,5.0,58,0.00,,,0.04,Wunderground v.1.15,2013-04-01 22:09:00,
2013-04-01 15:20:00,65.3,50.6,30.09,SSW,198,3.0,3.0,59,0.00,,,0.04,Wunderground v.1.15,2013-04-01 22:20:00,
2013-04-01 15:34:00,69.0,50.6,30.09,NW,308,2.0,2.0,52,0.00,,,0.04,Wunderground v.1.15,2013-04-01 22:34:00,
2013-04-01 15:40:00,68.7,50.4,30.09,North,355,3.0,4.0,52,0.00,,,0.04,Wunderground v.1.15,2013-04-01 22:40:00,
2013-04-01 15:50:00,67.7,50.9,30.08,NNW,337,3.0,3.0,55,0.00,,,0.04,Wunderground v.1.15,2013-04-01 22:50:00,
2013-04-01 16:05:00,66.8,50.1,30.09,SSW,198,1.0,1.0,55,0.00,,,0.04,Wunderground v.1.15,2013-04-01 23:05:00,
2013-04-01 16:14:00,66.4,49.7,30.08,NNW,345,1.0,2.0,55,0.00,,,0.04,Wunderground v.1.15,2013-04-01 23:14:00,
2013-04-01 16:20:00,66.4,49.7,30.09,NNW,327,2.0,2.0,55,0.00,,,0.04,Wunderground v.1.15,2013-04-01 23:20:00,
2013-04-01 16:25:00,66.4,50.7,30.09,WNW,296,3.0,3.0,57,0.00,,,0.04,Wunderground v.1.15,2013-04-01 23:25:00,
2013-04-01 16:34:00,65.9,50.2,30.09,NNW,340,3.0,8.0,57,0.00,,,0.04,Wunderground v.1.15,2013-04-01 23:34:00,
2013-04-01 16:40:00,65.5,51.2,30.09,NW,304,3.0,3.0,60,0.00,,,0.04,Wunderground v.1.15,2013-04-01 23:40:00,
2013-04-01 16:49:00,65.9,50.2,30.09,NNW,344,2.0,4.0,57,0.00,,,0.04,Wunderground v.1.15,2013-04-01 23:49:00,
2013-04-01 16:55:00,65.5,49.9,30.09,NNW,346,4.0,6.0,57,0.00,,,0.04,Wunderground v.1.15,2013-04-01 23:55:00,
2013-04-01 17:04:00,65.3,50.6,30.08,WNW,293,4.0,4.0,59,0.00,,,0.04,Wunderground v.1.15,2013-04-02 00:04:00,
2013-04-01 17:14:00,65.6,50.4,30.09,North,5,2.0,2.0,58,0.00,,,0.04,Wunderground v.1.15,2013-04-02 00:14:00,
2013-04-01 17:20:00,65.7,50.0,30.09,NNW,342,3.0,8.0,57,0.00,,,0.04,Wunderground v.1.15,2013-04-02 00:20:00,
2013-04-01 17:40:00,66.7,51.0,30.09,NNW,336,4.0,5.0,57,0.00,,,0.04,Wunderground v.1.15,2013-04-02 00:40:00,
2013-04-01 17:54:00,66.0,51.3,30.09,NNE,17,2.0,7.0,59,0.00,,,0.04,Wunderground v.1.15,2013-04-02 00:54:00,
2013-04-01 18:00:00,65.9,51.6,30.09,West,277,4.0,4.0,60,0.00,,,0.04,Wunderground v.1.15,2013-04-02 01:00:00,
2013-04-01 18:14:00,65.5,51.2,30.10,NW,320,3.0,8.0,60,0.00,,,0.04,Wunderground v.1.15,2013-04-02 01:14:00,
2013-04-01 18:24:00,65.4,51.1,30.10,NNW,330,3.0,5.0,60,0.00,,,0.04,Wunderground v.1.15,2013-04-02 01:24:00,
2013-04-01 18:30:00,64.9,50.7,30.10,NNW,329,3.0,3.0,60,0.00,,,0.04,Wunderground v.1.15,2013-04-02 01:30:00,
2013-04-01 18:39:00,63.7,50.9,30.10,NW,312,4.0,4.0,63,0.00,,,0.04,Wunderground v.1.15,2013-04-02 01:39:00,
2013-04-01 18:44:00,63.3,50.5,30.10,WNW,297,3.0,4.0,63,0.00,,,0.04,Wunderground v.1.15,2013-04-02 01:44:00,
2013-04-01 18:54:00,62.5,50.2,30.11,NNW,330,2.0,6.0,64,0.00,,,0.04,Wunderground v.1.15,2013-04-02 01:54:00,
2013-04-01 19:00:00,61.8,49.5,30.11,NW,325,2.0,4.0,64,0.00,,,0.04,Wunderground v.1.15,2013-04-02 02:00:00,
2013-04-01 19:15:00,60.0,49.0,30.11,NNW,336,3.0,3.0,67,0.00,,,0.04,Wunderground v.1.15,2013-04-02 02:15:00,
2013-04-01 19:24:00,59.2,49.0,30.11,NW,307,2.0,5.0,69,0.00,,,0.04,Wunderground v.1.15,2013-04-02 02:24:00,
2013-04-01 19:29:00,58.8,48.6,30.11,NW,321,3.0,3.0,69,0.00,,,0.04,Wunderground v.1.15,2013-04-02 02:29:00,
2013-04-01 19:35:00,58.4,48.7,30.12,NW,307,2.0,3.0,70,0.00,,,0.04,Wunderground v.1.15,2013-04-02 02:35:00,
2013-04-01 19:45:00,57.7,48.7,30.12,NW,309,2.0,2.0,72,0.00,,,0.04,Wunderground v.1.15,2013-04-02 02:45:00,
2013-04-01 19:50:00,57.4,48.4,30.12,WNW,286,1.0,4.0,72,0.00,,,0.04,Wunderground v.1.15,2013-04-02 02:50:00,
2013-04-01 20:00:00,56.8,48.2,30.11,NNW,340,1.0,1.0,73,0.00,,,0.04,Wunderground v.1.15,2013-04-02 03:00:00,
2013-04-01 20:09:00,56.3,47.8,30.12,NW,306,0.0,0.0,73,0.00,,,0.04,Wunderground v.1.15,2013-04-02 03:09:00,
2013-04-01 20:15:00,56.1,47.9,30.12,NW,306,0.0,0.0,74,0.00,,,0.04,Wunderground v.1.15,2013-04-02 03:15:00,
2013-04-01 20:24:00,55.7,47.5,30.12,NW,306,0.0,0.0,74,0.00,,,0.04,Wunderground v.1.15,2013-04-02 03:24:00,
2013-04-01 20:34:00,55.0,47.2,30.13,NW,306,0.0,0.0,75,0.00,,,0.04,Wunderground v.1.15,2013-04-02 03:34:00,
2013-04-01 20:39:00,54.2,46.8,30.13,NW,306,0.0,0.0,76,0.00,,,0.04,Wunderground v.1.15,2013-04-02 03:39:00,
2013-04-01 21:00:00,52.7,47.0,30.14,NW,306,0.0,0.0,81,0.00,,,0.04,Wunderground v.1.15,2013-04-02 04:00:00,
2013-04-01 21:04:00,52.5,46.8,30.14,NW,306,0.0,0.0,81,0.00,,,0.04,Wunderground v.1.15,2013-04-02 04:04:00,
2013-04-01 21:09:00,52.5,46.8,30.14,NW,306,0.0,0.0,81,0.00,,,0.04,Wunderground v.1.15,2013-04-02 04:09:00,
2013-04-01 21:25:00,52.2,46.9,30.14,NW,306,0.0,0.0,82,0.00,,,0.04,Wunderground v.1.15,2013-04-02 04:25:00,
2013-04-01 21:34:00,52.2,46.9,30.13,NW,306,0.0,0.0,82,0.00,,,0.04,Wunderground v.1.15,2013-04-02 04:34:00,
2013-04-01 21:39:00,52.2,47.2,30.13,NW,306,0.0,0.0,83,0.00,,,0.04,Wunderground v.1.15,2013-04-02 04:39:00,
2013-04-01 21:44:00,52.2,47.5,30.14,NW,306,0.0,0.0,84,0.00,,,0.04,Wunderground v.1.15,2013-04-02 04:44:00,
2013-04-01 21:50:00,52.3,47.6,30.14,NW,306,0.0,0.0,84,0.00,,,0.04,Wunderground v.1.15,2013-04-02 04:50:00,
2013-04-01 21:59:00,52.4,47.4,30.14,NW,306,0.0,0.0,83,0.00,,,0.04,Wunderground v.1.15,2013-04-02 04:59:00,
2013-04-01 22:14:00,51.2,46.8,30.14,NW,306,0.0,0.0,85,0.00,,,0.04,Wunderground v.1.15,2013-04-02 05:14:00,
2013-04-01 22:34:00,50.9,46.9,30.13,NW,306,0.0,0.0,86,0.00,,,0.04,Wunderground v.1.15,2013-04-02 05:34:00,
2013-04-01 22:40:00,50.8,46.8,30.14,NW,306,0.0,0.0,86,0.00,,,0.04,Wunderground v.1.15,2013-04-02 05:40:00,
2013-04-01 22:49:00,50.7,46.7,30.14,NW,306,0.0,0.0,86,0.00,,,0.04,Wunderground v.1.15,2013-04-02 05:49:00,
2013-04-01 22:54:00,50.7,46.7,30.14,NW,306,0.0,0.0,86,0.00,,,0.04,Wunderground v.1.15,2013-04-02 05:54:00,
2013-04-01 23:05:00,50.1,46.4,30.13,NW,306,0.0,0.0,87,0.00,,,0.04,Wunderground v.1.15,2013-04-02 06:05:00,
2013-04-01 23:25:00,49.9,46.2,30.13,NW,306,0.0,0.0,87,0.00,,,0.04,Wunderground v.1.15,2013-04-02 06:25:00,
2013-04-01 23:30:00,49.7,46.0,30.13,NW,306,0.0,0.0,87,0.00,,,0.04,Wunderground v.1.15,2013-04-02 06:30:00,
2013-04-01 23:35:00,49.8,46.4,30.13,NW,306,0.0,0.0,88,0.00,,,0.04,Wunderground v.1.15,2013-04-02 06:35:00,
2013-04-01 23:44:00,49.7,46.3,30.13,NW,306,0.0,0.0,88,0.00,,,0.04,Wunderground v.1.15,2013-04-02 06:44:00,
2013-04-01 23:50:00,49.9,46.5,30.13,NW,306,0.0,0.0,88,0.00,,,0.04,Wunderground v.1.15,2013-04-02 06:50:00,